createdAt,value
2023-01-21T00:00:52.429Z,-0.18
2023-01-21T00:01:30.740Z,-0.19
2023-01-21T00:02:30.555Z,-0.19
2023-01-21T00:03:30.771Z,-0.21
2023-01-21T00:04:30.513Z,-0.21
2023-01-21T00:05:32.199Z,-0.18
2023-01-21T00:06:31.487Z,-0.19
2023-01-21T00:07:30.794Z,-0.18
2023-01-21T00:08:30.569Z,-0.18
2023-01-21T00:09:30.311Z,-0.16
2023-01-21T00:10:50.579Z,-0.16
2023-01-21T00:11:31.030Z,-0.16
2023-01-21T00:12:30.587Z,-0.18
2023-01-21T00:13:30.368Z,-0.16
2023-01-21T00:14:30.624Z,-0.21
2023-01-21T00:15:30.421Z,-0.19
2023-01-21T00:16:30.621Z,-0.19
2023-01-21T00:17:30.377Z,-0.19
2023-01-21T00:18:30.648Z,-0.21
2023-01-21T00:19:30.415Z,-0.19
2023-01-21T00:20:50.673Z,-0.19
2023-01-21T00:21:30.415Z,-0.21
2023-01-21T00:22:30.669Z,-0.18
2023-01-21T00:23:31.349Z,-0.21
2023-01-21T00:24:30.191Z,-0.22
2023-01-21T00:25:30.431Z,-0.22
2023-01-21T00:26:30.201Z,-0.22
2023-01-21T00:27:30.449Z,-0.21
2023-01-21T00:28:30.213Z,-0.18
2023-01-21T00:29:30.714Z,-0.18
2023-01-21T00:30:52.425Z,-0.16
2023-01-21T00:31:30.584Z,-0.18
2023-01-21T00:32:30.256Z,-0.19
2023-01-21T00:33:30.513Z,-0.19
2023-01-21T00:34:30.270Z,-0.19
2023-01-21T00:35:30.531Z,-0.21
2023-01-21T00:36:30.893Z,-0.21
2023-01-21T00:37:31.518Z,-0.22
2023-01-21T00:38:31.806Z,-0.22
2023-01-21T00:39:30.898Z,-0.23
2023-01-21T00:40:50.930Z,-0.26
2023-01-21T00:41:30.153Z,-0.25
2023-01-21T00:42:30.412Z,-0.25
2023-01-21T00:43:30.176Z,-0.25
2023-01-21T00:44:30.459Z,-0.26
2023-01-21T00:45:30.215Z,-0.28
2023-01-21T00:46:30.489Z,-0.26
2023-01-21T00:47:30.227Z,-0.28
2023-01-21T00:48:29.998Z,-0.29
2023-01-21T00:49:30.267Z,-0.29
2023-01-21T00:50:50.069Z,-0.31
2023-01-21T00:51:30.301Z,-0.31
2023-01-21T00:52:30.084Z,-0.31
2023-01-21T00:53:30.340Z,-0.29
2023-01-21T00:54:30.123Z,-0.33
2023-01-21T00:55:29.875Z,-0.33
2023-01-21T00:56:30.146Z,-0.33
2023-01-21T00:57:29.911Z,-0.36
2023-01-21T00:58:30.909Z,-0.34
2023-01-21T00:59:29.934Z,-0.34
2023-01-21T01:00:50.216Z,-0.34
2023-01-21T01:01:31.414Z,-0.36
2023-01-21T01:02:30.226Z,-0.34
2023-01-21T01:03:31.421Z,-0.36
2023-01-21T01:04:31.704Z,-0.37
2023-01-21T01:05:30.019Z,-0.43
2023-01-21T01:06:31.242Z,-0.43
2023-01-21T01:07:30.055Z,-0.44
2023-01-21T01:08:29.831Z,-0.44
2023-01-21T01:09:30.405Z,-0.44
2023-01-21T01:10:49.833Z,-0.44
2023-01-21T01:11:30.100Z,-0.43
2023-01-21T01:12:29.878Z,-0.43
2023-01-21T01:13:30.127Z,-0.42
2023-01-21T01:14:29.895Z,-0.43
2023-01-21T01:15:30.136Z,-0.42
2023-01-21T01:16:31.355Z,-0.42
2023-01-21T01:17:29.664Z,-0.44
2023-01-21T01:18:29.952Z,-0.44
2023-01-21T01:19:29.676Z,-0.46
2023-01-21T01:20:51.410Z,-0.47
2023-01-21T01:21:31.149Z,-0.46
2023-01-21T01:22:29.994Z,-0.47
2023-01-21T01:23:29.739Z,-0.46
2023-01-21T01:24:30.017Z,-0.49
2023-01-21T01:25:29.744Z,-0.51
2023-01-21T01:26:30.033Z,-0.49
2023-01-21T01:27:29.759Z,-0.51
2023-01-21T01:28:30.984Z,-0.49
2023-01-21T01:29:30.403Z,-0.52
2023-01-21T01:30:50.219Z,-0.54
2023-01-21T01:31:29.901Z,-0.55
2023-01-21T01:32:29.584Z,-0.57
2023-01-21T01:33:29.850Z,-0.60
2023-01-21T01:34:29.629Z,-0.60
2023-01-21T01:35:29.873Z,-0.62
2023-01-21T01:36:29.857Z,-0.64
2023-01-21T01:37:29.900Z,-0.65
2023-01-21T01:38:29.657Z,-0.65
2023-01-21T01:39:29.927Z,-0.67
2023-01-21T01:40:49.685Z,-0.65
2023-01-21T01:41:29.469Z,-0.67
2023-01-21T01:42:29.695Z,-0.67
2023-01-21T01:43:29.469Z,-0.62
2023-01-21T01:44:29.712Z,-0.61
2023-01-21T01:45:29.488Z,-0.61
2023-01-21T01:46:29.868Z,-0.61
2023-01-21T01:47:29.489Z,-0.64
2023-01-21T01:48:29.720Z,-0.65
2023-01-21T01:49:29.514Z,-0.67
2023-01-21T01:50:49.785Z,-0.67
2023-01-21T01:51:29.489Z,-0.70
2023-01-21T01:52:29.738Z,-0.69
2023-01-21T01:53:29.508Z,-0.70
2023-01-21T01:54:29.760Z,-0.72
2023-01-21T01:55:29.498Z,-0.72
2023-01-21T01:56:29.740Z,-0.73
2023-01-21T01:57:29.519Z,-0.75
2023-01-21T01:58:29.300Z,-0.75
2023-01-21T01:59:29.565Z,-0.76
2023-01-21T02:00:49.314Z,-0.78
2023-01-21T02:01:29.573Z,-0.78
2023-01-21T02:02:29.340Z,-0.79
2023-01-21T02:03:29.609Z,-0.79
2023-01-21T02:04:29.345Z,-0.76
2023-01-21T02:05:29.601Z,-0.78
2023-01-21T02:06:29.366Z,-0.78
2023-01-21T02:07:29.630Z,-0.76
2023-01-21T02:08:29.530Z,-0.78
2023-01-21T02:09:29.729Z,-0.76
2023-01-21T02:10:49.442Z,-0.79
2023-01-21T02:11:29.150Z,-0.79
2023-01-21T02:12:29.405Z,-0.80
2023-01-21T02:13:29.179Z,-0.79
2023-01-21T02:14:29.416Z,-0.79
2023-01-21T02:15:29.191Z,-0.80
2023-01-21T02:16:29.497Z,-0.82
2023-01-21T02:17:29.348Z,-0.82
2023-01-21T02:18:29.455Z,-0.82
2023-01-21T02:19:29.231Z,-0.83
2023-01-21T02:20:49.471Z,-0.82
2023-01-21T02:21:29.433Z,-0.82
2023-01-21T02:22:29.463Z,-0.82
2023-01-21T02:23:29.224Z,-0.80
2023-01-21T02:24:29.471Z,-0.80
2023-01-21T02:25:29.246Z,-0.82
2023-01-21T02:26:29.475Z,-0.80
2023-01-21T02:27:31.046Z,-0.80
2023-01-21T02:28:28.985Z,-0.80
2023-01-21T02:29:29.257Z,-0.80
2023-01-21T02:30:49.551Z,-0.80
2023-01-21T02:31:29.304Z,-0.83
2023-01-21T02:32:29.003Z,-0.83
2023-01-21T02:33:29.273Z,-0.85
2023-01-21T02:34:29.004Z,-0.85
2023-01-21T02:35:29.264Z,-0.86
2023-01-21T02:36:28.997Z,-0.89
2023-01-21T02:37:29.253Z,-0.86
2023-01-21T02:38:29.035Z,-0.85
2023-01-21T02:39:29.271Z,-0.86
2023-01-21T02:40:49.024Z,-0.86
2023-01-21T02:41:29.275Z,-0.89
2023-01-21T02:42:29.011Z,-0.91
2023-01-21T02:43:29.286Z,-0.91
2023-01-21T02:44:29.032Z,-0.97
2023-01-21T02:45:29.298Z,-0.98
2023-01-21T02:46:29.070Z,-0.98
2023-01-21T02:47:30.774Z,-0.98
2023-01-21T02:48:29.073Z,-0.99
2023-01-21T02:49:28.819Z,-0.98
2023-01-21T02:50:49.071Z,-0.98
2023-01-21T02:51:28.820Z,-0.98
2023-01-21T02:52:29.066Z,-0.98
2023-01-21T02:53:28.851Z,-0.97
2023-01-21T02:54:29.106Z,-0.97
2023-01-21T02:55:28.844Z,-0.97
2023-01-21T02:56:29.514Z,-0.98
2023-01-21T02:57:28.835Z,-0.97
2023-01-21T02:58:29.116Z,-0.98
2023-01-21T02:59:28.856Z,-0.98
2023-01-21T03:00:49.189Z,-0.98
2023-01-21T03:01:28.855Z,-0.98
2023-01-21T03:02:29.124Z,-1.01
2023-01-21T03:03:28.867Z,-1.01
2023-01-21T03:04:29.141Z,-1.04
2023-01-21T03:05:28.882Z,-1.04
2023-01-21T03:06:29.124Z,-1.04
2023-01-21T03:07:28.906Z,-1.02
2023-01-21T03:08:28.650Z,-1.02
2023-01-21T03:09:28.905Z,-1.02
2023-01-21T03:10:48.728Z,-1.02
2023-01-21T03:11:28.967Z,-1.04
2023-01-21T03:12:28.719Z,-1.04
2023-01-21T03:13:28.956Z,-1.04
2023-01-21T03:14:28.708Z,-1.07
2023-01-21T03:15:28.961Z,-1.05
2023-01-21T03:16:28.791Z,-1.07
2023-01-21T03:17:28.566Z,-1.09
2023-01-21T03:18:28.833Z,-1.09
2023-01-21T03:19:28.645Z,-1.04
2023-01-21T03:20:48.916Z,-1.04
2023-01-21T03:21:28.692Z,-1.05
2023-01-21T03:22:29.011Z,-1.01
2023-01-21T03:23:28.791Z,-1.01
2023-01-21T03:24:28.576Z,-1.02
2023-01-21T03:25:28.883Z,-1.01
2023-01-21T03:26:28.624Z,-1.04
2023-01-21T03:27:28.939Z,-1.01
2023-01-21T03:28:28.702Z,-1.02
2023-01-21T03:29:28.484Z,-1.02
2023-01-21T03:30:49.223Z,-1.05
2023-01-21T03:31:28.643Z,-1.09
2023-01-21T03:32:28.865Z,-1.09
2023-01-21T03:33:28.635Z,-1.12
2023-01-21T03:34:28.484Z,-1.10
2023-01-21T03:35:28.778Z,-1.13
2023-01-21T03:36:28.525Z,-1.13
2023-01-21T03:37:28.806Z,-1.13
2023-01-21T03:38:28.579Z,-1.13
2023-01-21T03:39:28.385Z,-1.13
2023-01-21T03:40:48.678Z,-1.12
2023-01-21T03:41:28.448Z,-1.12
2023-01-21T03:42:28.693Z,-1.12
2023-01-21T03:43:28.465Z,-1.13
2023-01-21T03:44:28.739Z,-1.13
2023-01-21T03:45:28.564Z,-1.16
2023-01-21T03:46:28.305Z,-1.16
2023-01-21T03:47:28.647Z,-1.13
2023-01-21T03:48:28.402Z,-1.15
2023-01-21T03:49:28.704Z,-1.12
2023-01-21T03:50:48.503Z,-1.12
2023-01-21T03:51:28.257Z,-1.13
2023-01-21T03:52:28.587Z,-1.09
2023-01-21T03:53:28.322Z,-1.10
2023-01-21T03:54:28.619Z,-1.12
2023-01-21T03:55:28.394Z,-1.12
2023-01-21T03:56:28.172Z,-1.12
2023-01-21T03:57:28.465Z,-1.12
2023-01-21T03:58:28.233Z,-1.12
2023-01-21T03:59:28.502Z,-1.10
2023-01-21T04:00:48.283Z,-1.13
2023-01-21T04:01:28.517Z,-1.13
2023-01-21T04:02:28.311Z,-1.17
2023-01-21T04:03:28.516Z,-1.19
2023-01-21T04:04:28.261Z,-1.17
2023-01-21T04:05:28.523Z,-1.16
2023-01-21T04:06:28.263Z,-1.17
2023-01-21T04:07:28.083Z,-1.20
2023-01-21T04:08:28.273Z,-1.20
2023-01-21T04:09:28.559Z,-1.19
2023-01-21T04:10:48.311Z,-1.19
2023-01-21T04:11:28.044Z,-1.17
2023-01-21T04:12:28.299Z,-1.19
2023-01-21T04:13:28.042Z,-1.19
2023-01-21T04:14:28.283Z,-1.17
2023-01-21T04:15:28.044Z,-1.19
2023-01-21T04:16:28.298Z,-1.19
2023-01-21T04:17:28.069Z,-1.19
2023-01-21T04:18:28.496Z,-1.17
2023-01-21T04:19:28.069Z,-1.17
2023-01-21T04:20:48.327Z,-1.13
2023-01-21T04:21:28.064Z,-1.12
2023-01-21T04:22:28.319Z,-1.13
2023-01-21T04:23:28.055Z,-1.12
2023-01-21T04:24:29.745Z,-1.12
2023-01-21T04:25:28.061Z,-1.12
2023-01-21T04:26:28.301Z,-1.13
2023-01-21T04:27:28.046Z,-1.16
2023-01-21T04:28:28.285Z,-1.13
2023-01-21T04:29:28.060Z,-1.12
2023-01-21T04:30:48.437Z,-1.10
2023-01-21T04:31:28.089Z,-1.10
2023-01-21T04:32:28.306Z,-1.09
2023-01-21T04:33:28.063Z,-1.12
2023-01-21T04:34:27.794Z,-1.12
2023-01-21T04:35:28.081Z,-1.12
2023-01-21T04:36:27.806Z,-1.12
2023-01-21T04:37:28.077Z,-1.13
2023-01-21T04:38:27.816Z,-1.15
2023-01-21T04:39:28.077Z,-1.13
2023-01-21T04:40:47.820Z,-1.12
2023-01-21T04:41:28.074Z,-1.10
2023-01-21T04:42:27.818Z,-1.15
2023-01-21T04:43:28.097Z,-1.15
2023-01-21T04:44:27.850Z,-1.17
2023-01-21T04:45:28.105Z,-1.16
2023-01-21T04:46:27.985Z,-1.16
2023-01-21T04:47:28.141Z,-1.16
2023-01-21T04:48:27.873Z,-1.16
2023-01-21T04:49:29.097Z,-1.16
2023-01-21T04:50:47.948Z,-1.16
2023-01-21T04:51:27.678Z,-1.19
2023-01-21T04:52:27.907Z,-1.19
2023-01-21T04:53:27.672Z,-1.19
2023-01-21T04:54:27.909Z,-1.20
2023-01-21T04:55:29.111Z,-1.20
2023-01-21T04:56:27.908Z,-1.23
2023-01-21T04:57:27.667Z,-1.20
2023-01-21T04:58:27.918Z,-1.22
2023-01-21T04:59:27.676Z,-1.23
2023-01-21T05:00:47.922Z,-1.22
2023-01-21T05:01:27.741Z,-1.23
2023-01-21T05:02:27.947Z,-1.25
2023-01-21T05:03:27.701Z,-1.25
2023-01-21T05:04:27.935Z,-1.25
2023-01-21T05:05:27.682Z,-1.27
2023-01-21T05:06:28.599Z,-1.27
2023-01-21T05:07:29.129Z,-1.27
2023-01-21T05:08:27.446Z,-1.27
2023-01-21T05:09:29.142Z,-1.28
2023-01-21T05:10:47.946Z,-1.28
2023-01-21T05:11:27.712Z,-1.30
2023-01-21T05:12:27.449Z,-1.33
2023-01-21T05:13:27.733Z,-1.33
2023-01-21T05:14:27.459Z,-1.31
2023-01-21T05:15:27.754Z,-1.33
2023-01-21T05:16:27.509Z,-1.31
2023-01-21T05:17:27.771Z,-1.33
2023-01-21T05:18:27.507Z,-1.31
2023-01-21T05:19:27.923Z,-1.33
2023-01-21T05:20:47.576Z,-1.34
2023-01-21T05:21:27.881Z,-1.37
2023-01-21T05:22:28.987Z,-1.38
2023-01-21T05:23:27.299Z,-1.38
2023-01-21T05:24:27.550Z,-1.38
2023-01-21T05:25:27.342Z,-1.43
2023-01-21T05:26:27.547Z,-1.41
2023-01-21T05:27:27.309Z,-1.43
2023-01-21T05:28:27.562Z,-1.43
2023-01-21T05:29:27.335Z,-1.43
2023-01-21T05:30:47.615Z,-1.45
2023-01-21T05:31:27.448Z,-1.45
2023-01-21T05:32:27.592Z,-1.46
2023-01-21T05:33:27.351Z,-1.46
2023-01-21T05:34:27.600Z,-1.48
2023-01-21T05:35:27.371Z,-1.52
2023-01-21T05:36:28.067Z,-1.52
2023-01-21T05:37:27.369Z,-1.52
2023-01-21T05:38:27.686Z,-1.54
2023-01-21T05:39:27.432Z,-1.55
2023-01-21T05:40:47.682Z,-1.55
2023-01-21T05:41:27.417Z,-1.55
2023-01-21T05:42:27.178Z,-1.56
2023-01-21T05:43:27.415Z,-1.55
2023-01-21T05:44:27.341Z,-1.55
2023-01-21T05:45:27.438Z,-1.54
2023-01-21T05:46:27.224Z,-1.54
2023-01-21T05:47:27.442Z,-1.54
2023-01-21T05:48:27.216Z,-1.54
2023-01-21T05:49:27.473Z,-1.54
2023-01-21T05:50:47.301Z,-1.54
2023-01-21T05:51:27.457Z,-1.55
2023-01-21T05:52:27.219Z,-1.56
2023-01-21T05:53:27.665Z,-1.58
2023-01-21T05:54:28.311Z,-1.61
2023-01-21T05:55:27.481Z,-1.59
2023-01-21T05:56:27.246Z,-1.59
2023-01-21T05:57:27.000Z,-1.59
2023-01-21T05:58:28.047Z,-1.58
2023-01-21T05:59:26.995Z,-1.56
2023-01-21T06:00:47.295Z,-1.55
2023-01-21T06:01:28.457Z,-1.55
2023-01-21T06:02:27.781Z,-1.56
2023-01-21T06:03:27.052Z,-1.55
2023-01-21T06:04:27.293Z,-1.55
2023-01-21T06:05:27.033Z,-1.55
2023-01-21T06:06:28.733Z,-1.54
2023-01-21T06:07:27.052Z,-1.55
2023-01-21T06:08:27.304Z,-1.56
2023-01-21T06:09:27.042Z,-1.58
2023-01-21T06:10:47.317Z,-1.61
2023-01-21T06:11:27.048Z,-1.62
2023-01-21T06:12:27.326Z,-1.64
2023-01-21T06:13:27.055Z,-1.64
2023-01-21T06:14:28.273Z,-1.66
2023-01-21T06:15:28.648Z,-1.64
2023-01-21T06:16:26.953Z,-1.64
2023-01-21T06:17:27.191Z,-1.62
2023-01-21T06:18:26.978Z,-1.64
2023-01-21T06:19:27.198Z,-1.66
2023-01-21T06:20:48.507Z,-1.67
2023-01-21T06:21:26.849Z,-1.67
2023-01-21T06:22:27.072Z,-1.69
2023-01-21T06:23:26.817Z,-1.69
2023-01-21T06:24:27.086Z,-1.70
2023-01-21T06:25:26.823Z,-1.69
2023-01-21T06:26:27.362Z,-1.70
2023-01-21T06:27:33.682Z,-1.67
2023-01-21T06:28:26.920Z,-1.69
2023-01-21T06:29:27.174Z,-1.67
2023-01-21T06:30:48.516Z,-1.69
2023-01-21T06:31:26.764Z,-1.69
2023-01-21T06:32:26.948Z,-1.67
2023-01-21T06:33:26.735Z,-1.69
2023-01-21T06:34:26.945Z,-1.67
2023-01-21T06:35:26.704Z,-1.69
2023-01-21T06:36:26.949Z,-1.70
2023-01-21T06:37:26.729Z,-1.69
2023-01-21T06:38:26.983Z,-1.70
2023-01-21T06:39:26.757Z,-1.72
2023-01-21T06:40:48.467Z,-1.72
2023-01-21T06:41:26.769Z,-1.72
2023-01-21T06:42:27.022Z,-1.72
2023-01-21T06:43:26.801Z,-1.73
2023-01-21T06:44:26.519Z,-1.73
2023-01-21T06:45:26.788Z,-1.73
2023-01-21T06:46:26.587Z,-1.73
2023-01-21T06:47:32.107Z,-1.73
2023-01-21T06:48:28.961Z,-1.73
2023-01-21T06:49:26.773Z,-1.72
2023-01-21T06:50:47.599Z,-1.73
2023-01-21T06:51:26.841Z,-1.72
2023-01-21T06:53:42.641Z,-1.70
2023-01-21T06:54:42.392Z,-1.70
2023-01-21T06:55:42.670Z,-1.70
2023-01-21T06:56:42.409Z,-1.67
2023-01-21T06:57:42.664Z,-1.66
2023-01-21T06:58:42.399Z,-1.67
2023-01-21T06:59:42.634Z,-1.66
2023-01-21T07:00:42.402Z,-1.67
2023-01-21T07:01:42.731Z,-1.66
2023-01-21T07:03:02.449Z,-1.67
2023-01-21T07:03:42.144Z,-1.66
2023-01-21T07:04:42.455Z,-1.66
2023-01-21T07:05:42.135Z,-1.67
2023-01-21T07:06:42.394Z,-1.72
2023-01-21T07:07:42.146Z,-1.69
2023-01-21T07:08:42.386Z,-1.66
2023-01-21T07:09:42.126Z,-1.64
2023-01-21T07:10:42.383Z,-1.67
2023-01-21T07:11:42.143Z,-1.66
2023-01-21T07:13:02.427Z,-1.67
2023-01-21T07:13:42.144Z,-1.67
2023-01-21T07:14:42.409Z,-1.67
2023-01-21T07:15:42.191Z,-1.66
2023-01-21T07:16:42.403Z,-1.66
2023-01-21T07:17:42.145Z,-1.66
2023-01-21T07:18:42.420Z,-1.64
2023-01-21T07:19:42.166Z,-1.64
2023-01-21T07:20:42.442Z,-1.66
2023-01-21T07:21:42.177Z,-1.64
2023-01-21T07:23:02.445Z,-1.64
2023-01-21T07:23:42.169Z,-1.64
2023-01-21T07:24:42.424Z,-1.62
2023-01-21T07:25:42.169Z,-1.64
2023-01-21T07:26:41.922Z,-1.64
2023-01-21T07:27:42.173Z,-1.66
2023-01-21T07:28:41.912Z,-1.66
2023-01-21T07:29:42.148Z,-1.66
2023-01-21T07:30:41.934Z,-1.67
2023-01-21T07:31:42.183Z,-1.66
2023-01-21T07:33:01.909Z,-1.64
2023-01-21T07:33:42.149Z,-1.67
2023-01-21T07:34:41.901Z,-1.67
2023-01-21T07:35:42.147Z,-1.67
2023-01-21T07:36:41.894Z,-1.67
2023-01-21T07:37:42.133Z,-1.67
2023-01-21T07:38:41.894Z,-1.66
2023-01-21T07:39:42.142Z,-1.62
2023-01-21T07:40:41.896Z,-1.62
2023-01-21T07:41:42.135Z,-1.61
2023-01-21T07:43:01.913Z,-1.59
2023-01-21T07:43:42.132Z,-1.59
2023-01-21T07:44:41.900Z,-1.61
2023-01-21T07:45:42.137Z,-1.61
2023-01-21T07:46:41.924Z,-1.61
2023-01-21T07:47:42.168Z,-1.61
2023-01-21T07:48:41.939Z,-1.59
2023-01-21T07:49:41.671Z,-1.58
2023-01-21T07:50:41.953Z,-1.55
2023-01-21T07:51:41.668Z,-1.56
2023-01-21T07:53:01.929Z,-1.55
2023-01-21T07:53:41.657Z,-1.54
2023-01-21T07:54:41.931Z,-1.51
2023-01-21T07:55:41.657Z,-1.49
2023-01-21T07:56:41.929Z,-1.46
2023-01-21T07:57:41.642Z,-1.45
2023-01-21T07:58:41.921Z,-1.45
2023-01-21T07:59:41.651Z,-1.41
2023-01-21T08:00:41.907Z,-1.41
2023-01-21T08:01:41.736Z,-1.35
2023-01-21T08:03:03.377Z,-1.34
2023-01-21T08:03:41.664Z,-1.30
2023-01-21T08:04:41.920Z,-1.28
2023-01-21T08:05:41.664Z,-1.28
2023-01-21T08:06:41.931Z,-1.25
2023-01-21T08:07:41.666Z,-1.23
2023-01-21T08:08:41.946Z,-1.20
2023-01-21T08:09:41.669Z,-1.22
2023-01-21T08:10:41.937Z,-1.19
2023-01-21T08:11:41.669Z,-1.16
2023-01-21T08:13:03.197Z,-1.15
2023-01-21T08:13:41.711Z,-1.12
2023-01-21T08:14:41.495Z,-1.09
2023-01-21T08:15:41.706Z,-1.09
2023-01-21T08:16:41.478Z,-1.07
2023-01-21T08:17:41.735Z,-1.04
2023-01-21T08:18:41.476Z,-0.99
2023-01-21T08:19:41.720Z,-0.95
2023-01-21T08:20:41.472Z,-0.92
2023-01-21T08:21:41.737Z,-0.86
2023-01-21T08:23:02.121Z,-0.80
2023-01-21T08:23:41.764Z,-0.79
2023-01-21T08:24:41.511Z,-0.78
2023-01-21T08:25:41.771Z,-0.73
2023-01-21T08:26:41.522Z,-0.69
2023-01-21T08:27:41.799Z,-0.67
2023-01-21T08:28:41.610Z,-0.64
2023-01-21T08:29:41.327Z,-0.62
2023-01-21T08:30:41.644Z,-0.61
2023-01-21T08:31:41.350Z,-0.57
2023-01-21T08:33:01.637Z,-0.49
2023-01-21T08:33:40.826Z,-0.47
2023-01-21T08:34:41.610Z,-0.42
2023-01-21T08:35:41.361Z,-0.36
2023-01-21T08:36:41.626Z,-0.28
2023-01-21T08:37:41.349Z,-0.21
2023-01-21T08:38:41.613Z,-0.15
2023-01-21T08:39:41.346Z,-0.08
2023-01-21T08:40:41.636Z,0.02
2023-01-21T08:41:41.391Z,0.07
2023-01-21T08:43:01.682Z,0.11
2023-01-21T08:43:41.415Z,0.17
2023-01-21T08:44:41.182Z,0.23
2023-01-21T08:45:41.490Z,0.29
2023-01-21T08:46:41.177Z,0.31
2023-01-21T08:47:41.418Z,0.31
2023-01-21T08:48:41.167Z,0.29
2023-01-21T08:49:41.396Z,0.28
2023-01-21T08:50:41.166Z,0.26
2023-01-21T08:51:41.399Z,0.24
2023-01-21T08:53:00.685Z,0.18
2023-01-21T08:53:41.451Z,0.11
2023-01-21T08:54:41.158Z,0.07
2023-01-21T08:55:41.423Z,0.02
2023-01-21T08:56:41.176Z,-0.03
2023-01-21T08:57:41.414Z,-0.08
2023-01-21T08:58:41.180Z,-0.10
2023-01-21T08:59:41.446Z,-0.14
2023-01-21T09:00:41.221Z,-0.18
2023-01-21T09:01:41.439Z,-0.22
2023-01-21T09:03:02.661Z,-0.19
2023-01-21T09:03:41.431Z,-0.19
2023-01-21T09:04:41.183Z,-0.19
2023-01-21T09:05:40.959Z,-0.21
2023-01-21T09:06:41.216Z,-0.28
2023-01-21T09:07:40.957Z,-0.31
2023-01-21T09:08:41.212Z,-0.39
2023-01-21T09:09:40.983Z,-0.42
2023-01-21T09:10:40.440Z,-0.42
2023-01-21T09:11:40.376Z,-0.43
2023-01-21T09:13:00.420Z,-0.44
2023-01-21T09:13:40.361Z,-0.44
2023-01-21T09:14:42.632Z,-0.51
2023-01-21T09:15:42.462Z,-0.52
2023-01-21T09:16:41.668Z,-0.51
2023-01-21T09:17:42.049Z,-0.47
2023-01-21T09:18:42.340Z,-0.49
2023-01-21T09:19:42.669Z,-0.46
2023-01-21T09:20:42.496Z,-0.44
2023-01-21T09:21:42.297Z,-0.42
2023-01-21T09:23:01.152Z,-0.43
2023-01-21T09:23:41.574Z,-0.44
2023-01-21T09:24:41.698Z,-0.39
2023-01-21T09:25:42.430Z,-0.39
2023-01-21T09:26:42.238Z,-0.42
2023-01-21T09:27:42.541Z,-0.39
2023-01-21T09:28:41.629Z,-0.40
2023-01-21T09:29:42.681Z,-0.37
2023-01-21T09:30:42.501Z,-0.37
2023-01-21T09:31:41.795Z,-0.34
2023-01-21T09:33:01.070Z,-0.34
2023-01-21T09:33:41.527Z,-0.31
2023-01-21T09:34:41.638Z,-0.31
2023-01-21T09:35:42.378Z,-0.29
2023-01-21T09:36:42.250Z,-0.29
2023-01-21T09:37:42.522Z,-0.29
2023-01-21T09:38:42.306Z,-0.25
2023-01-21T09:39:41.663Z,-0.25
2023-01-21T09:40:42.373Z,-0.22
2023-01-21T09:41:40.878Z,-0.21
2023-01-21T09:43:01.063Z,-0.21
2023-01-21T09:43:41.795Z,-0.22
2023-01-21T09:44:42.113Z,-0.21
2023-01-21T09:45:41.700Z,-0.16
2023-01-21T09:46:42.230Z,-0.15
2023-01-21T09:47:41.535Z,-0.14
2023-01-21T09:48:42.359Z,-0.14
2023-01-21T09:49:42.171Z,-0.18
2023-01-21T09:50:41.657Z,-0.18
2023-01-21T09:51:42.292Z,-0.18
2023-01-21T09:53:00.631Z,-0.16
2023-01-21T09:53:42.325Z,-0.19
2023-01-21T09:54:42.116Z,-0.22
2023-01-21T09:55:42.412Z,-0.21
2023-01-21T09:56:41.192Z,-0.19
2023-01-21T09:57:42.051Z,-0.18
2023-01-21T09:58:42.299Z,-0.15
2023-01-21T09:59:41.317Z,-0.11
2023-01-21T10:00:41.917Z,-0.08
2023-01-21T10:01:40.755Z,-0.07
2023-01-21T10:03:01.155Z,-0.11
2023-01-21T10:03:40.801Z,-0.10
2023-01-21T10:04:40.584Z,-0.08
2023-01-21T10:05:42.245Z,-0.10
2023-01-21T10:06:40.553Z,-0.07
2023-01-21T10:07:40.861Z,-0.07
2023-01-21T10:08:40.605Z,-0.07
2023-01-21T10:09:40.405Z,-0.05
2023-01-21T10:10:40.648Z,-0.01
2023-01-21T10:11:40.415Z,-0.04
2023-01-21T10:13:02.139Z,-0.01
2023-01-21T10:13:40.459Z,-0.04
2023-01-21T10:14:40.707Z,-0.05
2023-01-21T10:15:40.485Z,-0.05
2023-01-21T10:16:40.783Z,-0.05
2023-01-21T10:17:40.483Z,-0.05
2023-01-21T10:18:40.232Z,-0.05
2023-01-21T10:19:41.416Z,-0.07
2023-01-21T10:20:40.249Z,-0.05
2023-01-21T10:21:40.505Z,-0.03
2023-01-21T10:23:01.747Z,-0.04
2023-01-21T10:23:42.769Z,0.00
2023-01-21T10:24:40.289Z,-0.01
2023-01-21T10:25:40.564Z,-0.01
2023-01-21T10:26:40.324Z,0.02
2023-01-21T10:27:40.587Z,0.03
2023-01-21T10:28:40.299Z,0.07
2023-01-21T10:29:40.625Z,0.10
2023-01-21T10:30:40.424Z,0.13
2023-01-21T10:31:40.697Z,0.15
2023-01-21T10:33:00.789Z,0.17
2023-01-21T10:33:40.437Z,0.17
2023-01-21T10:34:40.407Z,0.21
2023-01-21T10:35:40.166Z,0.21
2023-01-21T10:36:40.419Z,0.24
2023-01-21T10:37:40.176Z,0.29
2023-01-21T10:38:40.422Z,0.29
2023-01-21T10:39:40.177Z,0.28
2023-01-21T10:40:40.425Z,0.29
2023-01-21T10:41:40.178Z,0.32
2023-01-21T10:43:00.431Z,0.32
2023-01-21T10:43:40.182Z,0.29
2023-01-21T10:44:41.963Z,0.32
2023-01-21T10:45:41.786Z,0.31
2023-01-21T10:46:41.616Z,0.33
2023-01-21T10:47:41.410Z,0.36
2023-01-21T10:48:40.657Z,0.39
2023-01-21T10:49:41.584Z,0.41
2023-01-21T10:50:41.896Z,0.41
2023-01-21T10:51:41.190Z,0.46
2023-01-21T10:53:00.004Z,0.49
2023-01-21T10:53:41.699Z,0.53
2023-01-21T10:54:40.308Z,0.57
2023-01-21T10:55:41.421Z,0.55
2023-01-21T10:56:41.711Z,0.55
2023-01-21T10:57:41.511Z,0.57
2023-01-21T10:58:40.887Z,0.57
2023-01-21T10:59:41.661Z,0.62
2023-01-21T11:00:40.680Z,0.66
2023-01-21T11:01:39.730Z,0.73
2023-01-21T11:02:59.331Z,0.88
2023-01-21T11:03:39.580Z,0.93
2023-01-21T11:04:39.579Z,0.97
2023-01-21T11:05:39.587Z,0.98
2023-01-21T11:06:39.685Z,1.06
2023-01-21T11:07:39.555Z,1.09
2023-01-21T11:08:39.636Z,1.12
2023-01-21T11:09:39.594Z,1.12
2023-01-21T11:10:40.253Z,1.15
2023-01-21T11:11:39.586Z,1.20
2023-01-21T11:12:59.286Z,1.23
2023-01-21T11:13:39.781Z,1.26
2023-01-21T11:14:39.702Z,1.29
2023-01-21T11:15:39.560Z,1.37
2023-01-21T11:16:40.615Z,1.41
2023-01-21T11:17:41.228Z,1.47
2023-01-21T11:18:40.686Z,1.50
2023-01-21T11:19:40.792Z,1.50
2023-01-21T11:20:41.077Z,1.54
2023-01-21T11:21:41.426Z,1.65
2023-01-21T11:22:59.753Z,2.96
2023-01-21T11:23:41.545Z,3.80
2023-01-21T11:24:41.324Z,4.77
2023-01-21T11:25:40.632Z,5.12
2023-01-21T11:26:40.822Z,5.56
2023-01-21T11:27:41.350Z,5.93
2023-01-21T11:28:41.142Z,6.87
2023-01-21T11:29:40.096Z,7.27
2023-01-21T11:30:50.683Z,7.24
2023-01-21T11:31:41.430Z,7.10
2023-01-21T11:32:59.907Z,6.87
2023-01-21T11:33:41.153Z,7.03
2023-01-21T11:34:40.928Z,7.49
2023-01-21T11:35:41.216Z,6.94
2023-01-21T11:36:40.188Z,6.43
2023-01-21T11:37:41.361Z,6.22
2023-01-21T11:38:41.209Z,5.90
2023-01-21T11:39:39.581Z,5.64
2023-01-21T11:40:41.279Z,5.90
2023-01-21T11:41:39.890Z,5.90
2023-01-21T11:42:59.464Z,5.65
2023-01-21T11:43:41.177Z,5.68
2023-01-21T11:44:41.038Z,6.49
2023-01-21T11:45:40.822Z,6.92
2023-01-21T11:46:41.112Z,7.39
2023-01-21T11:47:40.902Z,7.75
2023-01-21T11:48:40.205Z,8.44
2023-01-21T11:49:39.630Z,8.36
2023-01-21T11:50:40.347Z,8.12
2023-01-21T11:51:41.111Z,7.42
2023-01-21T11:53:01.825Z,6.89
2023-01-21T11:53:40.208Z,6.76
2023-01-21T11:54:40.200Z,6.70
2023-01-21T11:55:40.025Z,6.85
2023-01-21T11:56:41.063Z,6.77
2023-01-21T11:57:39.644Z,6.59
2023-01-21T11:58:40.725Z,6.38
2023-01-21T11:59:41.110Z,6.22
2023-01-21T12:00:40.191Z,6.14
2023-01-21T12:01:40.696Z,6.08
2023-01-21T12:02:59.612Z,6.12
2023-01-21T12:03:40.824Z,6.18
2023-01-21T12:04:41.010Z,6.04
2023-01-21T12:05:40.218Z,5.81
2023-01-21T12:06:40.223Z,5.54
2023-01-21T12:07:40.916Z,5.45
2023-01-21T12:08:40.711Z,5.45
2023-01-21T12:09:41.086Z,5.91
2023-01-21T12:10:40.073Z,6.00
2023-01-21T12:11:39.213Z,5.85
2023-01-21T12:12:59.473Z,5.79
2023-01-21T12:13:40.682Z,6.09
2023-01-21T12:14:41.032Z,6.04
2023-01-21T12:15:40.467Z,5.86
2023-01-21T12:16:39.194Z,5.75
2023-01-21T12:17:40.905Z,5.61
2023-01-21T12:18:39.723Z,5.45
2023-01-21T12:19:39.049Z,5.40
2023-01-21T12:20:40.739Z,5.27
2023-01-21T12:21:40.595Z,5.36
2023-01-21T12:22:59.407Z,5.78
2023-01-21T12:23:39.216Z,6.01
2023-01-21T12:24:39.724Z,5.99
2023-01-21T12:25:39.926Z,5.82
2023-01-21T12:26:40.597Z,5.57
2023-01-21T12:27:39.342Z,5.36
2023-01-21T12:28:40.773Z,5.15
2023-01-21T12:29:40.564Z,5.06
2023-01-21T12:30:39.734Z,5.09
2023-01-21T12:31:40.768Z,5.10
2023-01-21T12:32:58.939Z,5.36
2023-01-21T12:33:40.673Z,5.45
2023-01-21T12:34:40.450Z,5.48
2023-01-21T12:35:39.265Z,5.46
2023-01-21T12:36:39.016Z,5.61
2023-01-21T12:37:39.268Z,5.68
2023-01-21T12:38:39.030Z,5.68
2023-01-21T12:39:39.295Z,5.64
2023-01-21T12:40:39.065Z,5.57
2023-01-21T12:41:38.838Z,5.51
2023-01-21T12:42:59.759Z,5.38
2023-01-21T12:43:39.013Z,5.31
2023-01-21T12:44:38.767Z,5.27
2023-01-21T12:45:39.046Z,5.18
2023-01-21T12:46:38.826Z,5.18
2023-01-21T12:47:39.070Z,5.17
2023-01-21T12:48:38.846Z,5.17
2023-01-21T12:49:39.078Z,5.15
2023-01-21T12:50:38.925Z,5.06
2023-01-21T12:51:39.123Z,5.02
2023-01-21T12:53:00.435Z,5.06
2023-01-21T12:53:38.747Z,5.04
2023-01-21T12:54:38.972Z,5.06
2023-01-21T12:55:38.724Z,5.02
2023-01-21T12:56:39.012Z,4.96
2023-01-21T12:57:38.767Z,4.91
2023-01-21T12:58:39.043Z,4.94
2023-01-21T12:59:38.785Z,4.85